Time;durP1;ratioP1;P1;durP2;ratioP2;P2;SDS_P1;SDS_P2;PMS_P1;PMS_P2;Temp;Humidity;BMP_temperature;BMP_pressure;BME280_temperature;BME280_humidity;BME280_pressure;Samples;Min_cycle;Max_cycle;Signal;HPM_P1;HPM_P2
2023/03/20 00:01:54;;;;;;;9.95;2.40;;;8.70;99.90;;;;;;4635779;28;9999792;-80
2023/03/20 00:04:20;;;;;;;12.75;2.03;;;8.60;99.90;;;;;;4965908;28;20046;-81
2023/03/20 00:06:46;;;;;;;10.02;1.70;;;8.70;99.90;;;;;;4972705;28;20072;-81
2023/03/20 00:09:12;;;;;;;14.13;2.05;;;8.70;99.90;;;;;;4993577;28;20080;-80
2023/03/20 00:11:50;;;;;;;16.85;3.13;;;8.70;99.90;;;;;;4965199;28;20501;-81
2023/03/20 00:14:19;;;;;;;17.80;3.60;;;8.70;99.90;;;;;;4961140;28;20081;-81
2023/03/20 00:16:46;;;;;;;15.32;1.95;;;8.80;99.90;;;;;;4966461;28;20023;-80
2023/03/20 00:19:21;;;;;;;17.25;2.85;;;8.80;99.90;;;;;;4975355;28;20527;-81
2023/03/20 00:21:48;;;;;;;23.50;2.60;;;8.80;99.90;;;;;;4976093;28;20548;-80
2023/03/20 00:24:15;;;;;;;13.68;1.90;;;8.70;99.90;;;;;;4964655;28;20054;-80
2023/03/20 00:26:42;;;;;;;19.55;2.78;;;8.60;99.90;;;;;;4993605;28;20461;-80
2023/03/20 00:29:22;;;;;;;12.68;2.35;;;8.70;99.90;;;;;;4971120;28;20034;-80
2023/03/20 00:31:48;;;;;;;13.07;2.58;;;8.60;99.90;;;;;;4961499;28;20467;-80
2023/03/20 00:34:18;;;;;;;12.10;1.98;;;8.60;99.90;;;;;;4977594;28;20521;-80
2023/03/20 00:36:43;;;;;;;12.60;2.13;;;8.60;99.90;;;;;;4956781;28;20033;-81
2023/03/20 00:39:09;;;;;;;17.27;2.70;;;8.60;99.90;;;;;;4985521;28;20522;-80
2023/03/20 00:41:35;;;;;;;11.38;2.33;;;8.60;99.90;;;;;;4985528;28;20045;-80
2023/03/20 00:44:08;;;;;;;17.50;2.10;;;8.60;99.90;;;;;;4975016;28;20026;-81
2023/03/20 00:46:37;;;;;;;18.75;2.85;;;8.60;99.90;;;;;;4965743;28;20026;-81
2023/03/20 00:49:02;;;;;;;16.92;2.55;;;8.70;99.90;;;;;;4965942;28;20030;-80
2023/03/20 00:51:28;;;;;;;14.95;2.25;;;8.70;99.90;;;;;;4968134;28;20093;-81
2023/03/20 00:53:54;;;;;;;17.35;3.05;;;8.70;99.90;;;;;;4985699;28;20058;-81
2023/03/20 00:56:38;;;;;;;12.98;1.98;;;8.70;99.90;;;;;;4969709;28;20117;-81
2023/03/20 00:59:04;;;;;;;12.02;2.22;;;8.80;99.90;;;;;;4984042;28;20226;-81
2023/03/20 01:01:30;;;;;;;15.40;2.40;;;8.90;99.90;;;;;;4975327;28;20045;-80
2023/03/20 01:03:58;;;;;;;20.60;2.88;;;8.90;99.90;;;;;;4984323;28;20101;-82
2023/03/20 01:06:23;;;;;;;13.95;2.78;;;8.80;99.90;;;;;;4960857;28;20078;-81
2023/03/20 01:08:49;;;;;;;11.73;2.25;;;8.90;99.90;;;;;;4964207;28;20054;-81
2023/03/20 01:11:20;;;;;;;24.38;3.40;;;8.80;99.90;;;;;;4978507;28;20022;-80
2023/03/20 01:13:46;;;;;;;;;;;8.80;99.90;;;;;;4990833;28;20030;-80
2023/03/20 01:16:23;;;;;;;19.70;2.95;;;8.90;99.90;;;;;;4987355;28;20243;-80
2023/03/20 01:18:49;;;;;;;20.20;2.63;;;8.90;99.90;;;;;;4967960;28;20042;-81
2023/03/20 01:21:16;;;;;;;8.75;2.20;;;8.90;99.90;;;;;;4973286;28;20504;-80
2023/03/20 01:23:42;;;;;;;17.52;2.63;;;9.00;99.90;;;;;;4971255;28;20510;-81
2023/03/20 01:26:30;;;;;;;16.48;2.40;;;8.90;99.90;;;;;;4983037;28;20050;-81
2023/03/20 01:28:56;;;;;;;15.77;3.22;;;8.90;99.90;;;;;;5001504;28;20034;-80
2023/03/20 01:31:22;;;;;;;17.05;2.67;;;8.90;99.90;;;;;;4980122;28;20046;-80
2023/03/20 01:33:47;;;;;;;14.45;3.25;;;9.00;99.90;;;;;;4968806;28;20114;-80
2023/03/20 01:36:16;;;;;;;20.65;3.38;;;9.00;99.90;;;;;;4977983;28;20122;-81
2023/03/20 01:38:42;;;;;;;14.90;2.60;;;9.00;99.90;;;;;;4975972;28;20027;-81
2023/03/20 01:41:07;;;;;;;19.90;3.35;;;9.00;99.90;;;;;;4982162;28;20054;-80
2023/03/20 01:43:34;;;;;;;22.38;3.03;;;9.00;99.90;;;;;;4984237;28;20022;-81
2023/03/20 01:46:24;;;;;;;19.58;2.97;;;8.90;99.90;;;;;;4959466;28;20573;-81
2023/03/20 01:48:49;;;;;;;19.45;3.47;;;9.00;99.90;;;;;;4964103;28;20031;-81
2023/03/20 01:51:36;;;;;;;15.77;2.65;;;9.00;99.90;;;;;;4978751;28;20049;-81
2023/03/20 01:54:07;;;;;;;20.98;2.78;;;9.00;99.90;;;;;;4983313;28;20030;-80
2023/03/20 01:56:42;;;;;;;24.52;2.45;;;9.00;99.90;;;;;;4962931;28;20043;-81
2023/03/20 01:59:20;;;;;;;17.50;2.45;;;9.00;99.90;;;;;;4967650;28;20026;-81
2023/03/20 02:01:46;;;;;;;16.38;1.92;;;9.00;99.90;;;;;;4956331;28;20506;-81
2023/03/20 02:04:14;;;;;;;23.08;2.72;;;9.00;99.90;;;;;;4977471;28;20093;-80
2023/03/20 02:06:43;;;;;;;19.95;2.50;;;9.00;99.90;;;;;;4983740;28;20042;-80
2023/03/20 02:09:09;;;;;;;15.68;1.90;;;9.00;99.90;;;;;;4986252;28;20033;-81
2023/03/20 02:11:37;;;;;;;15.65;1.88;;;8.90;99.90;;;;;;4965356;28;20039;-80
2023/03/20 02:14:03;;;;;;;16.55;2.67;;;8.90;99.90;;;;;;4964615;28;20167;-80
2023/03/20 02:16:29;;;;;;;21.58;2.67;;;9.00;99.90;;;;;;4983454;28;20125;-80
2023/03/20 02:18:57;;;;;;;12.77;2.10;;;9.00;99.90;;;;;;4960991;28;20030;-80
2023/03/20 02:21:50;;;;;;;21.50;2.72;;;9.00;99.90;;;;;;4961916;28;20186;-79
2023/03/20 02:24:45;;;;;;;14.27;2.30;;;8.90;99.90;;;;;;4949644;28;20043;-81
2023/03/20 02:27:29;;;;;;;13.30;2.13;;;8.90;99.90;;;;;;4960499;28;20173;-80
2023/03/20 02:30:23;;;;;;;24.25;2.55;;;8.80;99.90;;;;;;4983425;28;20046;-81
2023/03/20 02:32:54;;;;;;;20.67;2.28;;;8.90;99.90;;;;;;4980458;28;20495;-81
2023/03/20 02:35:38;;;;;;;17.55;2.47;;;8.80;99.90;;;;;;4966995;28;20045;-81
2023/03/20 02:38:28;;;;;;;13.93;2.85;;;8.80;99.90;;;;;;4964112;28;20022;-81
2023/03/20 02:41:00;;;;;;;16.42;2.70;;;8.80;99.90;;;;;;4973868;28;20041;-80
2023/03/20 02:43:40;;;;;;;;;;;8.80;99.90;;;;;;4998918;28;20029;-80
2023/03/20 02:46:14;;;;;;;13.65;2.28;;;8.80;99.90;;;;;;4999935;28;19956;-81
2023/03/20 02:48:48;;;;;;;13.90;2.25;;;8.70;99.90;;;;;;4993309;28;20053;-80
2023/03/20 02:51:21;;;;;;;12.40;2.22;;;8.70;99.90;;;;;;4993521;28;20419;-81
2023/03/20 02:54:34;;;;;;;13.70;2.42;;;8.60;99.90;;;;;;4972718;28;20061;-80
2023/03/20 02:57:07;;;;;;;26.92;3.45;;;8.40;99.90;;;;;;4909125;28;20042;-81
2023/03/20 02:59:56;;;;;;;17.00;2.17;;;8.30;99.90;;;;;;4976420;28;20064;-81
2023/03/20 03:02:33;;;;;;;16.95;2.05;;;8.10;99.90;;;;;;4981296;28;20049;-81
2023/03/20 03:05:03;;;;;;;18.05;2.50;;;8.10;99.90;;;;;;4983644;28;20039;-81
2023/03/20 03:07:32;;;;;;;15.43;2.83;;;8.00;99.90;;;;;;4978779;28;20026;-80
2023/03/20 03:10:14;;;;;;;23.02;2.95;;;8.00;99.90;;;;;;4955983;28;20026;-81
2023/03/20 03:12:43;;;;;;;18.63;2.55;;;7.90;99.90;;;;;;4966791;28;20088;-81
2023/03/20 03:15:38;;;;;;;22.67;2.83;;;7.90;99.90;;;;;;4996974;28;20438;-81
2023/03/20 03:18:08;;;;;;;16.58;2.65;;;7.80;99.90;;;;;;4945216;28;20442;-81
2023/03/20 03:20:37;;;;;;;11.45;2.42;;;7.80;99.90;;;;;;4984324;28;20409;-81
2023/03/20 03:23:04;;;;;;;17.83;2.60;;;7.80;99.90;;;;;;4986488;28;20038;-81
2023/03/20 03:25:34;;;;;;;24.75;3.35;;;7.80;99.90;;;;;;4958039;28;20041;-80
2023/03/20 03:28:03;;;;;;;21.60;2.97;;;7.90;99.90;;;;;;4985437;28;20022;-80
2023/03/20 03:30:32;;;;;;;16.38;2.47;;;7.90;99.90;;;;;;4974234;28;20038;-80
2023/03/20 03:33:22;;;;;;;18.80;2.50;;;7.90;99.90;;;;;;4979035;28;20189;-80
2023/03/20 03:35:49;;;;;;;17.50;3.10;;;8.10;99.90;;;;;;4963188;28;20535;-80
2023/03/20 03:38:43;;;;;;;21.60;2.72;;;8.10;99.90;;;;;;4970053;28;20599;-80
2023/03/20 03:41:33;;;;;;;16.80;2.35;;;8.20;99.90;;;;;;4982852;28;20455;-80
2023/03/20 03:44:25;;;;;;;22.58;3.53;;;8.30;99.90;;;;;;4984882;28;20065;-81
2023/03/20 03:46:58;;;;;;;21.02;2.53;;;8.40;99.90;;;;;;4956557;28;20034;-81
2023/03/20 03:49:32;;;;;;;20.75;3.17;;;8.50;99.90;;;;;;4994483;28;20137;-80
2023/03/20 03:52:05;;;;;;;23.42;2.95;;;8.50;99.90;;;;;;4999300;28;20126;-81
2023/03/20 03:54:36;;;;;;;20.65;3.00;;;8.60;99.90;;;;;;4985568;28;20102;-81
2023/03/20 03:57:04;;;;;;;18.13;3.28;;;8.60;99.90;;;;;;4958700;28;20246;-80
2023/03/20 03:59:37;;;;;;;14.07;3.00;;;8.70;99.90;;;;;;4966586;28;20065;-80
2023/03/20 04:02:07;;;;;;;24.45;3.30;;;8.70;99.90;;;;;;4964851;28;20045;-80
2023/03/20 04:04:34;;;;;;;15.18;3.00;;;8.80;99.90;;;;;;4961402;28;20050;-80
2023/03/20 04:07:00;;;;;;;25.23;3.40;;;8.80;99.90;;;;;;4981698;28;20508;-81
2023/03/20 04:09:26;;;;;;;21.02;2.90;;;8.80;99.90;;;;;;4955551;28;20114;-80
2023/03/20 04:11:52;;;;;;;18.13;2.80;;;8.80;99.90;;;;;;4998161;28;20060;-81
2023/03/20 04:14:18;;;;;;;15.10;2.80;;;8.90;99.90;;;;;;4975173;28;20035;-80
2023/03/20 04:16:45;;;;;;;13.20;2.42;;;8.80;99.90;;;;;;4952541;28;20031;-81
2023/03/20 04:19:11;;;;;;;15.85;2.22;;;8.80;99.90;;;;;;4971159;28;20121;-79
2023/03/20 04:21:36;;;;;;;13.50;2.00;;;9.00;99.90;;;;;;4981009;28;20129;-79
2023/03/20 04:24:02;;;;;;;19.15;2.75;;;8.90;99.90;;;;;;4982137;28;20031;-78
2023/03/20 04:26:28;;;;;;;17.48;2.88;;;8.90;99.90;;;;;;4970296;28;20105;-78
2023/03/20 04:28:54;;;;;;;19.05;3.10;;;9.00;99.90;;;;;;4964152;28;20027;-78
2023/03/20 04:31:19;;;;;;;21.73;2.35;;;9.00;99.90;;;;;;4959484;28;20167;-79
2023/03/20 04:33:46;;;;;;;12.70;2.22;;;9.00;99.90;;;;;;4970004;28;20030;-79
2023/03/20 04:36:12;;;;;;;18.85;2.60;;;9.00;99.90;;;;;;4982196;28;20041;-79
2023/03/20 04:38:38;;;;;;;19.38;3.15;;;9.00;99.90;;;;;;4979674;28;20058;-79
2023/03/20 04:41:04;;;;;;;19.52;3.08;;;9.00;99.90;;;;;;4969063;28;20069;-80
2023/03/20 04:43:30;;;;;;;18.95;4.13;;;9.00;99.90;;;;;;4955817;28;20023;-79
2023/03/20 04:45:56;;;;;;;21.73;2.75;;;9.00;99.90;;;;;;4968479;28;20042;-79
2023/03/20 04:48:22;;;;;;;23.13;2.95;;;9.00;99.90;;;;;;4971595;28;20406;-80
2023/03/20 04:50:49;;;;;;;18.08;2.42;;;9.00;99.90;;;;;;4967548;28;20126;-79
2023/03/20 04:53:15;;;;;;;22.98;2.80;;;9.00;99.90;;;;;;4962702;28;20114;-80
2023/03/20 04:55:41;;;;;;;18.65;2.72;;;9.00;99.90;;;;;;4969837;28;20038;-79
2023/03/20 04:58:07;;;;;;;23.55;2.83;;;9.00;99.90;;;;;;4960974;28;20029;-79
2023/03/20 05:00:32;;;;;;;19.77;2.78;;;9.10;99.90;;;;;;4980504;28;20038;-80
2023/03/20 05:02:58;;;;;;;22.10;3.22;;;9.10;99.90;;;;;;4997152;28;20051;-79
2023/03/20 05:05:24;;;;;;;19.02;2.40;;;9.00;99.90;;;;;;4979686;28;20062;-79
2023/03/20 05:07:50;;;;;;;17.00;2.65;;;9.00;99.90;;;;;;4980507;28;20061;-79
2023/03/20 05:10:17;;;;;;;14.77;2.72;;;9.00;99.90;;;;;;4962182;28;20058;-79
2023/03/20 05:12:43;;;;;;;17.15;2.45;;;9.10;99.90;;;;;;4968030;28;20116;-80
2023/03/20 05:15:09;;;;;;;12.30;2.35;;;9.10;99.90;;;;;;4982257;28;20110;-79
2023/03/20 05:17:34;;;;;;;20.42;3.05;;;9.10;99.90;;;;;;4946445;28;20038;-79
2023/03/20 05:20:00;;;;;;;19.55;2.92;;;9.10;99.90;;;;;;4946506;28;20034;-80
2023/03/20 05:22:26;;;;;;;23.20;3.42;;;9.10;99.90;;;;;;4963725;28;20074;-80
2023/03/20 05:24:51;;;;;;;21.77;3.88;;;9.10;99.90;;;;;;4967899;28;20022;-80
2023/03/20 05:27:17;;;;;;;16.35;2.47;;;9.10;99.90;;;;;;4943098;28;20772;-79
2023/03/20 05:29:43;;;;;;;17.25;2.38;;;9.10;99.90;;;;;;4960021;28;20113;-79
2023/03/20 05:32:08;;;;;;;16.40;2.65;;;9.10;99.90;;;;;;4964561;28;20133;-79
2023/03/20 05:34:34;;;;;;;21.90;3.35;;;9.10;99.90;;;;;;4958853;28;20030;-79
2023/03/20 05:37:00;;;;;;;24.80;3.10;;;9.10;99.90;;;;;;4998365;28;20480;-80
2023/03/20 05:39:25;;;;;;;20.17;2.40;;;9.10;99.90;;;;;;4981654;28;20039;-80
2023/03/20 05:41:51;;;;;;;19.45;2.67;;;9.10;99.90;;;;;;4971514;28;20034;-79
2023/03/20 05:44:16;;;;;;;18.50;2.58;;;9.20;99.90;;;;;;4980346;28;20062;-79
2023/03/20 05:46:44;;;;;;;17.52;2.67;;;9.20;99.90;;;;;;4947294;28;20038;-79
2023/03/20 05:49:10;;;;;;;21.10;2.65;;;9.20;99.90;;;;;;4997965;28;20145;-79
2023/03/20 05:51:36;;;;;;;17.95;3.25;;;9.10;99.90;;;;;;4970607;28;20125;-80
2023/03/20 05:54:01;;;;;;;22.05;3.00;;;9.20;99.90;;;;;;4979462;28;20040;-80
2023/03/20 05:56:27;;;;;;;19.73;2.60;;;9.20;99.90;;;;;;4982871;28;20139;-79
2023/03/20 05:58:53;;;;;;;23.85;3.20;;;9.20;99.90;;;;;;4982157;28;20022;-80
2023/03/20 06:01:20;;;;;;;19.98;3.58;;;9.20;99.90;;;;;;4979041;28;20177;-80
2023/03/20 06:03:49;;;;;;;21.27;4.55;;;9.20;99.90;;;;;;4968712;28;20034;-80
2023/03/20 06:06:15;;;;;;;22.35;3.50;;;9.30;99.90;;;;;;4986802;28;20048;-80
2023/03/20 06:08:41;;;;;;;22.38;3.33;;;9.20;99.90;;;;;;4975282;28;20197;-80
2023/03/20 06:11:08;;;;;;;18.48;3.28;;;9.30;99.90;;;;;;4994447;28;20034;-80
2023/03/20 06:13:34;;;;;;;22.92;3.10;;;9.30;99.90;;;;;;4982683;28;20118;-80
2023/03/20 06:16:00;;;;;;;25.83;3.15;;;9.30;99.90;;;;;;4976794;28;20919;-81
2023/03/20 06:18:26;;;;;;;21.45;3.58;;;9.30;99.90;;;;;;4986184;28;20056;-79
2023/03/20 06:20:53;;;;;;;28.50;6.15;;;9.30;99.90;;;;;;4996181;28;20077;-79
2023/03/20 06:23:19;;;;;;;19.90;3.53;;;9.40;99.90;;;;;;4986859;28;20460;-80
2023/03/20 06:25:45;;;;;;;26.67;4.97;;;9.40;99.90;;;;;;4978490;28;20105;-80
2023/03/20 06:28:10;;;;;;;22.65;3.78;;;9.40;99.90;;;;;;4999559;28;20112;-79
2023/03/20 06:30:36;;;;;;;19.02;4.10;;;9.40;99.90;;;;;;5002086;28;20108;-79
2023/03/20 06:33:02;;;;;;;23.73;4.07;;;9.50;99.90;;;;;;4994086;28;20041;-79
2023/03/20 06:35:30;;;;;;;19.95;3.63;;;9.50;99.90;;;;;;4996716;28;20029;-81
2023/03/20 06:37:56;;;;;;;21.85;3.53;;;9.50;99.90;;;;;;4980414;28;20061;-80
2023/03/20 06:40:22;;;;;;;20.73;3.58;;;9.50;99.90;;;;;;4981369;28;21116;-81
2023/03/20 06:42:47;;;;;;;21.83;3.30;;;9.50;99.90;;;;;;4954189;28;20030;-79
2023/03/20 06:45:13;;;;;;;24.83;3.40;;;9.50;99.90;;;;;;4969211;28;20031;-80
2023/03/20 06:47:39;;;;;;;15.45;2.85;;;9.60;99.90;;;;;;4973431;28;20034;-79
2023/03/20 06:50:05;;;;;;;16.75;3.08;;;9.50;99.90;;;;;;4980311;28;20039;-80
2023/03/20 06:52:31;;;;;;;16.05;3.28;;;9.50;99.90;;;;;;4983468;28;20081;-81
2023/03/20 06:54:57;;;;;;;23.38;3.67;;;9.50;99.90;;;;;;4981842;28;20022;-80
2023/03/20 06:57:23;;;;;;;21.27;4.00;;;9.50;99.90;;;;;;4985116;28;20517;-79
2023/03/20 06:59:49;;;;;;;16.73;2.70;;;9.50;99.90;;;;;;4972483;28;20023;-79
2023/03/20 07:02:15;;;;;;;17.77;3.05;;;9.50;99.90;;;;;;4965652;28;20046;-81
2023/03/20 07:04:41;;;;;;;23.65;3.42;;;9.50;99.90;;;;;;4985185;28;20038;-80
2023/03/20 07:07:07;;;;;;;18.67;2.92;;;9.50;99.90;;;;;;4987582;28;20343;-81
2023/03/20 07:09:32;;;;;;;14.73;2.72;;;9.60;99.90;;;;;;4984645;28;20026;-81
2023/03/20 07:11:58;;;;;;;16.63;2.63;;;9.60;99.90;;;;;;4990489;28;20452;-81
2023/03/20 07:14:24;;;;;;;14.80;2.40;;;9.60;99.90;;;;;;4983266;28;20026;-81
2023/03/20 07:16:50;;;;;;;10.45;2.38;;;9.60;99.90;;;;;;4974527;28;20052;-81
2023/03/20 07:19:16;;;;;;;10.52;2.03;;;9.70;99.90;;;;;;4980343;28;20080;-81
2023/03/20 07:21:42;;;;;;;12.43;2.05;;;9.60;99.90;;;;;;4992609;28;20381;-80
2023/03/20 07:24:08;;;;;;;6.25;1.98;;;9.60;99.90;;;;;;4975940;28;20027;-81
2023/03/20 07:26:34;;;;;;;9.48;2.08;;;9.60;99.90;;;;;;4959492;28;20039;-81
2023/03/20 07:29:00;;;;;;;8.80;2.00;;;9.70;99.90;;;;;;4986523;28;20036;-80
2023/03/20 07:31:28;;;;;;;16.95;2.05;;;9.70;99.90;;;;;;4975017;28;20038;-81
2023/03/20 07:33:54;;;;;;;12.18;2.22;;;9.70;99.90;;;;;;4968330;28;20423;-81
2023/03/20 07:36:20;;;;;;;7.68;1.38;;;9.70;99.90;;;;;;4950064;28;20479;-81
2023/03/20 07:38:46;;;;;;;5.22;1.40;;;9.80;99.90;;;;;;4972531;28;20034;-81
2023/03/20 07:41:11;;;;;;;7.93;1.30;;;9.80;99.90;;;;;;4954895;28;20130;-81
2023/03/20 07:43:37;;;;;;;7.50;1.52;;;9.80;99.90;;;;;;4984126;28;20580;-80
2023/03/20 07:46:07;;;;;;;10.40;2.47;;;9.80;99.90;;;;;;4973670;28;20084;-80
2023/03/20 07:48:34;;;;;;;12.27;1.92;;;9.80;99.90;;;;;;4962280;28;20034;-81
2023/03/20 07:51:00;;;;;;;9.98;1.98;;;9.80;99.90;;;;;;4980570;28;20590;-80
2023/03/20 07:53:26;;;;;;;11.82;2.17;;;9.80;99.90;;;;;;4947650;28;20077;-80
2023/03/20 07:55:52;;;;;;;11.50;2.13;;;9.90;99.90;;;;;;4970243;28;20148;-79
2023/03/20 07:58:18;;;;;;;7.40;1.92;;;9.90;99.90;;;;;;4955680;28;20121;-80
2023/03/20 08:00:43;;;;;;;9.27;2.08;;;9.90;99.90;;;;;;4956650;28;20054;-81
2023/03/20 08:03:09;;;;;;;10.27;2.05;;;10.00;99.90;;;;;;4985418;28;20575;-81
2023/03/20 08:05:35;;;;;;;11.77;1.98;;;10.00;99.90;;;;;;4958422;28;20176;-80
2023/03/20 08:08:01;;;;;;;14.30;2.63;;;10.10;99.90;;;;;;4933024;28;20024;-81
2023/03/20 08:10:27;;;;;;;12.25;1.85;;;10.00;99.90;;;;;;4932615;28;20034;-80
2023/03/20 08:12:53;;;;;;;13.43;2.38;;;10.00;99.90;;;;;;4937458;29;20283;-81
2023/03/20 08:15:18;;;;;;;8.13;2.00;;;10.00;99.90;;;;;;4956963;28;20092;-82
2023/03/20 08:17:45;;;;;;;10.48;2.05;;;10.00;99.90;;;;;;4948780;28;20069;-82
2023/03/20 08:20:13;;;;;;;19.15;2.47;;;10.00;99.90;;;;;;4946685;28;20034;-82
2023/03/20 08:22:38;;;;;;;14.90;3.28;;;10.00;99.90;;;;;;4943967;28;20130;-82
2023/03/20 08:25:05;;;;;;;17.02;3.05;;;10.00;99.90;;;;;;4947305;28;20149;-83
2023/03/20 08:27:30;;;;;;;13.80;3.33;;;10.00;99.90;;;;;;4948616;28;20042;-83
2023/03/20 08:29:56;;;;;;;21.30;3.75;;;10.00;99.90;;;;;;4948011;28;20049;-83
2023/03/20 08:32:21;;;;;;;19.52;3.55;;;10.10;99.90;;;;;;4951444;28;20061;-84
2023/03/20 08:34:47;;;;;;;16.17;3.40;;;10.10;99.90;;;;;;4960321;28;20498;-83
2023/03/20 08:37:14;;;;;;;26.05;3.60;;;10.10;99.90;;;;;;4961143;28;20063;-83
2023/03/20 08:39:39;;;;;;;23.33;3.33;;;10.20;99.90;;;;;;4942892;29;20046;-83
2023/03/20 08:42:06;;;;;;;24.48;3.65;;;10.30;99.90;;;;;;4936885;28;20042;-82
2023/03/20 08:44:31;;;;;;;17.33;3.13;;;10.30;99.90;;;;;;4944316;28;20045;-83
2023/03/20 08:46:57;;;;;;;24.08;3.45;;;10.30;99.90;;;;;;4952914;28;20471;-84
2023/03/20 08:49:23;;;;;;;18.05;2.88;;;10.30;99.90;;;;;;4951521;28;20099;-83
2023/03/20 08:51:49;;;;;;;13.68;2.92;;;10.40;99.90;;;;;;4949051;28;20035;-81
2023/03/20 08:54:17;;;;;;;21.17;2.72;;;10.40;99.90;;;;;;4941249;28;20089;-83
2023/03/20 08:56:44;;;;;;;13.98;3.05;;;10.50;99.90;;;;;;4942416;28;20035;-83
2023/03/20 08:59:10;;;;;;;14.80;2.60;;;10.60;99.90;;;;;;4927954;28;20447;-81
2023/03/20 09:01:36;;;;;;;14.57;2.55;;;10.70;99.90;;;;;;4948176;28;20084;-84
2023/03/20 09:04:02;;;;;;;9.85;2.30;;;10.80;99.90;;;;;;4950871;28;20069;-83
2023/03/20 09:06:27;;;;;;;11.60;2.47;;;10.70;99.90;;;;;;4978906;28;20463;-83
2023/03/20 09:08:55;;;;;;;13.55;2.28;;;10.80;99.90;;;;;;4978015;28;20031;-83
2023/03/20 09:11:21;;;;;;;19.45;3.03;;;10.90;99.90;;;;;;4969469;28;20513;-84
2023/03/20 09:13:46;;;;;;;14.50;2.90;;;10.90;99.90;;;;;;4962130;28;20173;-84
2023/03/20 09:16:12;;;;;;;11.65;2.10;;;10.90;99.90;;;;;;4962268;28;20030;-84
2023/03/20 09:18:37;;;;;;;16.40;3.28;;;10.90;99.90;;;;;;4963675;28;20917;-84
2023/03/20 09:21:03;;;;;;;18.40;2.42;;;10.90;99.90;;;;;;4969698;28;20062;-84
2023/03/20 09:23:29;;;;;;;17.33;3.00;;;10.80;99.90;;;;;;4966024;28;20031;-81
2023/03/20 09:25:54;;;;;;;16.13;2.92;;;10.90;99.90;;;;;;4968989;28;20030;-82
2023/03/20 09:28:20;;;;;;;15.57;2.35;;;10.80;99.90;;;;;;4957184;28;21745;-83
2023/03/20 09:30:45;;;;;;;10.05;2.45;;;10.80;99.90;;;;;;4968118;28;20026;-82
2023/03/20 09:33:13;;;;;;;15.05;2.95;;;10.80;99.90;;;;;;4970656;28;20053;-82
2023/03/20 09:35:38;;;;;;;13.60;2.50;;;10.80;99.90;;;;;;4975135;28;20556;-82
2023/03/20 09:38:05;;;;;;;13.82;2.28;;;10.80;99.90;;;;;;4973314;28;20064;-82
2023/03/20 09:40:48;;;;;;;9.70;2.45;;;10.90;99.90;;;;;;4992458;28;20169;-84
2023/03/20 09:43:39;;;;;;;13.55;2.95;;;11.10;99.90;;;;;;4983718;28;20171;-83
2023/03/20 09:46:17;;;;;;;13.45;2.65;;;11.10;99.90;;;;;;4970437;28;20030;-82
2023/03/20 09:48:55;;;;;;;10.88;2.70;;;11.20;99.90;;;;;;4965800;28;20034;-84
2023/03/20 09:51:27;;;;;;;12.68;2.58;;;11.20;99.90;;;;;;4980059;28;20506;-81
2023/03/20 09:53:58;;;;;;;8.45;1.90;;;11.20;99.90;;;;;;4963114;28;20030;-83
2023/03/20 09:56:26;;;;;;;16.25;2.42;;;11.30;99.90;;;;;;4981225;28;20026;-82
2023/03/20 09:59:01;;;;;;;13.38;2.17;;;11.50;99.90;;;;;;4973342;28;20362;-84
2023/03/20 10:01:33;;;;;;;12.63;2.28;;;11.50;99.90;;;;;;4981729;28;20046;-83
2023/03/20 10:04:05;;;;;;;15.18;2.33;;;11.60;99.90;;;;;;4981280;28;20184;-81
2023/03/20 10:06:32;;;;;;;7.65;2.25;;;11.70;99.90;;;;;;4961389;28;20069;-83
2023/03/20 10:08:58;;;;;;;12.02;2.25;;;11.80;99.90;;;;;;4976798;28;20509;-83
2023/03/20 10:11:56;;;;;;;10.60;2.47;;;11.70;99.90;;;;;;4959057;28;20117;-80
2023/03/20 10:14:49;;;;;;;11.05;2.20;;;11.80;99.90;;;;;;4923680;28;20535;-81
2023/03/20 10:17:20;;;;;;;11.48;1.92;;;12.00;99.90;;;;;;4980054;28;20037;-82
2023/03/20 10:20:13;;;;;;;11.88;1.92;;;12.20;99.90;;;;;;4621641;28;9999873;-82
2023/03/20 10:22:55;;;;;;;11.93;2.25;;;12.20;99.90;;;;;;4971053;28;20120;-82
2023/03/20 10:25:33;;;;;;;10.48;2.03;;;12.10;99.90;;;;;;4959981;28;20029;-81
2023/03/20 10:28:03;;;;;;;12.55;2.95;;;12.00;99.90;;;;;;4970006;28;20018;-81
2023/03/20 10:30:40;;;;;;;10.88;2.22;;;12.00;99.90;;;;;;4974654;28;20070;-82
2023/03/20 10:33:36;;;;;;;13.05;2.80;;;12.00;99.90;;;;;;4972941;28;20544;-82
2023/03/20 10:36:40;;;;;;;12.50;2.75;;;11.80;99.90;;;;;;4957974;28;20034;-82
2023/03/20 10:39:27;;;;;;;13.38;2.85;;;11.60;99.90;;;;;;4967906;28;20034;-85
2023/03/20 10:41:56;;;;;;;9.15;2.20;;;11.50;99.90;;;;;;4968831;28;20046;-83
2023/03/20 10:44:33;;;;;;;13.52;2.33;;;11.50;99.90;;;;;;4972756;28;20034;-82
2023/03/20 10:47:02;;;;;;;12.38;2.40;;;11.60;99.90;;;;;;4972235;28;20041;-83
2023/03/20 10:49:30;;;;;;;12.77;1.83;;;11.70;99.90;;;;;;4974995;28;20031;-82
2023/03/20 10:52:07;;;;;;;23.33;2.80;;;11.80;99.90;;;;;;4979332;28;20093;-82
2023/03/20 10:54:43;;;;;;;14.15;2.13;;;11.80;99.90;;;;;;4961568;28;20033;-83
2023/03/20 10:57:25;;;;;;;12.73;2.13;;;11.70;99.90;;;;;;4620600;28;10000468;-82
2023/03/20 10:59:54;;;;;;;11.18;2.03;;;11.70;99.90;;;;;;4958904;28;20026;-82
2023/03/20 11:02:22;;;;;;;13.75;2.33;;;11.60;99.90;;;;;;4963636;28;20046;-83
2023/03/20 11:04:49;;;;;;;14.20;3.38;;;11.50;99.90;;;;;;4962664;28;20047;-81
2023/03/20 11:07:14;;;;;;;11.15;2.13;;;11.40;99.90;;;;;;4983525;28;20053;-83
2023/03/20 11:09:40;;;;;;;9.65;2.33;;;11.40;99.90;;;;;;4971652;28;20034;-82
2023/03/20 11:12:16;;;;;;;10.68;1.77;;;11.40;99.90;;;;;;4990727;28;20074;-82
2023/03/20 11:14:43;;;;;;;16.30;3.08;;;11.30;99.90;;;;;;4960046;28;20026;-82
2023/03/20 11:17:10;;;;;;;18.13;2.70;;;11.30;99.90;;;;;;4970222;28;20492;-82
2023/03/20 11:19:38;;;;;;;15.95;2.15;;;11.30;99.90;;;;;;4971379;28;20018;-82
2023/03/20 11:22:25;;;;;;;11.65;2.13;;;11.30;99.90;;;;;;4973463;28;20118;-82
2023/03/20 11:25:00;;;;;;;11.23;2.20;;;11.40;99.90;;;;;;4976417;28;20023;-84
2023/03/20 11:27:33;;;;;;;10.10;1.70;;;11.40;99.90;;;;;;4962108;28;20034;-83
2023/03/20 11:30:03;;;;;;;12.88;2.65;;;11.50;99.90;;;;;;4971966;28;20042;-82
2023/03/20 11:32:32;;;;;;;11.80;2.25;;;11.80;99.90;;;;;;4969488;28;20054;-84
2023/03/20 11:35:16;;;;;;;9.60;2.03;;;12.00;99.90;;;;;;4981040;28;20489;-84
2023/03/20 11:37:45;;;;;;;13.32;2.38;;;12.20;99.90;;;;;;4990400;28;20027;-83
2023/03/20 11:40:22;;;;;;;11.23;2.22;;;12.10;99.90;;;;;;4985012;28;20729;-82
2023/03/20 11:42:52;;;;;;;13.50;2.50;;;12.10;99.90;;;;;;4964994;28;20697;-84
2023/03/20 11:45:18;;;;;;;20.85;3.08;;;12.00;99.90;;;;;;4983176;28;20037;-83
2023/03/20 11:47:51;;;;;;;12.88;2.03;;;12.00;99.90;;;;;;4980568;28;20034;-82
2023/03/20 11:50:25;;;;;;;14.98;3.30;;;12.00;99.90;;;;;;4966600;28;20040;-85
2023/03/20 11:52:51;;;;;;;15.90;3.30;;;12.00;99.90;;;;;;4975311;28;20027;-82
2023/03/20 11:55:29;;;;;;;14.23;3.10;;;12.00;99.90;;;;;;4970192;28;20050;-83
2023/03/20 11:58:00;;;;;;;16.90;2.65;;;11.90;99.90;;;;;;4960361;28;20080;-84
2023/03/20 12:00:34;;;;;;;14.65;2.53;;;12.10;99.90;;;;;;4975461;28;20026;-84
2023/03/20 12:03:00;;;;;;;14.75;2.80;;;12.20;99.90;;;;;;4974705;28;20151;-84
2023/03/20 12:05:35;;;;;;;11.52;2.00;;;12.20;99.90;;;;;;4961343;28;20498;-84
2023/03/20 12:08:20;;;;;;;9.05;1.63;;;12.10;99.90;;;;;;4974380;28;20117;-83
2023/03/20 12:10:54;;;;;;;12.63;2.15;;;12.20;99.90;;;;;;4958257;28;20041;-84
2023/03/20 12:13:26;;;;;;;10.85;2.10;;;12.20;99.90;;;;;;4965746;28;20057;-83
2023/03/20 12:15:58;;;;;;;8.80;2.08;;;12.00;99.90;;;;;;4976408;28;20145;-82
2023/03/20 12:18:32;;;;;;;7.20;2.00;;;12.00;99.90;;;;;;4968019;28;20403;-84
2023/03/20 12:21:11;;;;;;;10.65;2.28;;;12.00;99.90;;;;;;4972300;28;20030;-82
2023/03/20 12:23:51;;;;;;;7.03;1.75;;;12.00;99.90;;;;;;4967265;28;20041;-82
2023/03/20 12:27:11;;;;;;;8.50;1.85;;;12.00;99.90;;;;;;4972139;28;20027;-83
2023/03/20 12:30:12;;;;;;;4.80;1.48;;;12.10;99.90;;;;;;4595216;28;10000568;-83
2023/03/20 12:33:27;;;;;;;5.35;1.30;;;12.10;99.90;;;;;;4964012;28;20063;-83
2023/03/20 12:35:53;;;;;;;5.70;1.30;;;12.00;99.90;;;;;;4918393;29;20039;-83
2023/03/20 12:38:31;;;;;;;9.88;1.90;;;12.10;99.90;;;;;;4960078;28;21959;-83
2023/03/20 12:41:25;;;;;;;7.47;2.17;;;12.10;99.90;;;;;;4968945;28;20045;-84
2023/03/20 12:43:59;;;;;;;7.15;2.08;;;12.00;99.90;;;;;;4952079;28;20039;-84
2023/03/20 12:46:36;;;;;;;8.02;2.20;;;11.90;99.90;;;;;;4956798;28;20034;-82
2023/03/20 12:49:19;;;;;;;4.38;1.80;;;11.80;99.90;;;;;;4963308;28;20035;-82
2023/03/20 12:52:03;;;;;;;10.32;2.40;;;11.70;99.90;;;;;;4955401;28;20549;-81
2023/03/20 12:54:45;;;;;;;4.93;1.80;;;11.70;99.90;;;;;;4974115;28;20038;-83
2023/03/20 12:57:24;;;;;;;5.45;1.55;;;11.80;99.90;;;;;;4956220;28;20038;-82
2023/03/20 13:00:14;;;;;;;3.53;1.00;;;11.80;99.90;;;;;;4969257;28;20518;-82
2023/03/20 13:02:53;;;;;;;3.47;0.80;;;11.80;99.90;;;;;;4949110;28;20030;-83
2023/03/20 13:05:47;;;;;;;2.15;0.75;;;11.90;99.90;;;;;;4973781;28;20569;-84